sensor_id;sensor_type;location;lat;lon;timestamp;pressure;altitude;pressure_sealevel;temperature;humidity
59103;BME280;43999;51.660;5.616;2023-06-10T00:00:03;101196.63;;;22.30;60.14
59103;BME280;43999;51.660;5.616;2023-06-10T00:02:39;101210.41;;;22.25;60.15
59103;BME280;43999;51.660;5.616;2023-06-10T00:05:07;101206.34;;;22.21;60.16
59103;BME280;43999;51.660;5.616;2023-06-10T00:07:36;101206.81;;;22.16;60.38
59103;BME280;43999;51.660;5.616;2023-06-10T00:10:08;101204.28;;;22.15;60.87
59103;BME280;43999;51.660;5.616;2023-06-10T00:12:37;101201.09;;;22.11;60.86
59103;BME280;43999;51.660;5.616;2023-06-10T00:15:06;101206.72;;;22.08;61.08
59103;BME280;43999;51.660;5.616;2023-06-10T00:17:35;101199.31;;;22.02;61.19
59103;BME280;43999;51.660;5.616;2023-06-10T00:20:08;101206.63;;;22.00;61.62
59103;BME280;43999;51.660;5.616;2023-06-10T00:22:39;101215.75;;;21.97;61.50
59103;BME280;43999;51.660;5.616;2023-06-10T00:25:09;101207.38;;;21.92;62.05
59103;BME280;43999;51.660;5.616;2023-06-10T00:27:38;101205.16;;;21.88;62.34
59103;BME280;43999;51.660;5.616;2023-06-10T00:30:06;101208.09;;;21.84;62.07
59103;BME280;43999;51.660;5.616;2023-06-10T00:32:35;101203.38;;;21.78;62.38
59103;BME280;43999;51.660;5.616;2023-06-10T00:35:04;101217.00;;;21.75;63.07
59103;BME280;43999;51.660;5.616;2023-06-10T00:37:34;101215.59;;;21.71;63.47
59103;BME280;43999;51.660;5.616;2023-06-10T00:40:07;101213.50;;;21.65;63.19
59103;BME280;43999;51.660;5.616;2023-06-10T00:42:36;101215.50;;;21.63;64.46
59103;BME280;43999;51.660;5.616;2023-06-10T00:45:05;101211.44;;;21.59;64.15
59103;BME280;43999;51.660;5.616;2023-06-10T00:47:35;101216.38;;;21.54;65.18
59103;BME280;43999;51.660;5.616;2023-06-10T00:50:04;101206.69;;;21.43;64.79
59103;BME280;43999;51.660;5.616;2023-06-10T00:52:33;101218.19;;;21.43;65.64
59103;BME280;43999;51.660;5.616;2023-06-10T00:55:02;101221.28;;;21.39;66.42
59103;BME280;43999;51.660;5.616;2023-06-10T00:57:30;101221.56;;;21.36;66.49
59103;BME280;43999;51.660;5.616;2023-06-10T00:59:59;101214.84;;;21.31;66.61
59103;BME280;43999;51.660;5.616;2023-06-10T01:02:27;101218.94;;;21.26;67.57
59103;BME280;43999;51.660;5.616;2023-06-10T01:04:59;101221.88;;;21.23;67.87
59103;BME280;43999;51.660;5.616;2023-06-10T01:07:34;101217.81;;;21.19;68.19
59103;BME280;43999;51.660;5.616;2023-06-10T01:10:41;101215.56;;;21.14;68.23
59103;BME280;43999;51.660;5.616;2023-06-10T01:13:15;101217.97;;;21.07;68.67
59103;BME280;43999;51.660;5.616;2023-06-10T01:15:45;101225.44;;;21.04;69.18
59103;BME280;43999;51.660;5.616;2023-06-10T01:18:12;101212.81;;;20.96;69.31
59103;BME280;43999;51.660;5.616;2023-06-10T01:20:43;101223.47;;;20.96;69.72
59103;BME280;43999;51.660;5.616;2023-06-10T01:23:13;101227.38;;;20.92;69.78
59103;BME280;43999;51.660;5.616;2023-06-10T01:26:13;101224.31;;;20.87;70.71
59103;BME280;43999;51.660;5.616;2023-06-10T01:29:02;101218.69;;;20.80;70.65
59103;BME280;43999;51.660;5.616;2023-06-10T01:31:42;101227.69;;;20.79;71.53
59103;BME280;43999;51.660;5.616;2023-06-10T01:34:19;101222.03;;;20.72;71.95
59103;BME280;43999;51.660;5.616;2023-06-10T01:36:50;101223.31;;;20.68;72.79
59103;BME280;43999;51.660;5.616;2023-06-10T01:39:23;101224.53;;;20.64;73.10
59103;BME280;43999;51.660;5.616;2023-06-10T01:41:52;101232.81;;;20.61;73.94
59103;BME280;43999;51.660;5.616;2023-06-10T01:44:22;101233.09;;;20.58;73.71
59103;BME280;43999;51.660;5.616;2023-06-10T01:46:50;101218.91;;;20.48;74.04
59103;BME280;43999;51.660;5.616;2023-06-10T01:49:18;101229.41;;;20.49;74.97
59103;BME280;43999;51.660;5.616;2023-06-10T01:51:46;101219.47;;;20.41;75.00
59103;BME280;43999;51.660;5.616;2023-06-10T01:54:13;101231.81;;;20.42;75.38
59103;BME280;43999;51.660;5.616;2023-06-10T01:56:40;101220.72;;;20.37;75.93
59103;BME280;43999;51.660;5.616;2023-06-10T01:59:08;101220.16;;;20.34;76.12
59103;BME280;43999;51.660;5.616;2023-06-10T02:01:35;101227.56;;;20.30;76.30
59103;BME280;43999;51.660;5.616;2023-06-10T02:04:03;101219.88;;;20.27;76.97
59103;BME280;43999;51.660;5.616;2023-06-10T02:06:31;101222.81;;;20.24;77.77
59103;BME280;43999;51.660;5.616;2023-06-10T02:08:59;101224.75;;;20.22;77.76
59103;BME280;43999;51.660;5.616;2023-06-10T02:11:29;101224.91;;;20.20;78.89
59103;BME280;43999;51.660;5.616;2023-06-10T02:13:57;101223.06;;;20.11;78.35
59103;BME280;43999;51.660;5.616;2023-06-10T02:16:24;101222.19;;;20.11;78.09
59103;BME280;43999;51.660;5.616;2023-06-10T02:18:52;101229.47;;;20.09;79.03
59103;BME280;43999;51.660;5.616;2023-06-10T02:21:19;101227.91;;;20.06;78.69
59103;BME280;43999;51.660;5.616;2023-06-10T02:23:47;101237.03;;;20.03;79.86
59103;BME280;43999;51.660;5.616;2023-06-10T02:26:15;101226.94;;;19.97;80.03
59103;BME280;43999;51.660;5.616;2023-06-10T02:28:43;101235.03;;;19.96;80.62
59103;BME280;43999;51.660;5.616;2023-06-10T02:31:13;101227.59;;;19.90;80.25
59103;BME280;43999;51.660;5.616;2023-06-10T02:33:41;101228.44;;;19.90;80.85
59103;BME280;43999;51.660;5.616;2023-06-10T02:36:10;101229.78;;;19.84;80.60
59103;BME280;43999;51.660;5.616;2023-06-10T02:38:42;101229.09;;;19.82;81.22
59103;BME280;43999;51.660;5.616;2023-06-10T02:41:10;101240.84;;;19.80;81.41
59103;BME280;43999;51.660;5.616;2023-06-10T02:43:37;101244.50;;;19.79;81.86
59103;BME280;43999;51.660;5.616;2023-06-10T02:46:06;101237.72;;;19.75;82.14
59103;BME280;43999;51.660;5.616;2023-06-10T02:48:42;101241.50;;;19.72;82.56
59103;BME280;43999;51.660;5.616;2023-06-10T02:51:20;101239.09;;;19.69;82.67
59103;BME280;43999;51.660;5.616;2023-06-10T02:53:51;101241.16;;;19.65;82.51
59103;BME280;43999;51.660;5.616;2023-06-10T02:56:19;101237.94;;;19.62;82.72
59103;BME280;43999;51.660;5.616;2023-06-10T02:58:47;101237.38;;;19.58;83.07
59103;BME280;43999;51.660;5.616;2023-06-10T03:01:16;101236.78;;;19.55;83.53
59103;BME280;43999;51.660;5.616;2023-06-10T03:04:00;101233.66;;;19.49;84.01
59103;BME280;43999;51.660;5.616;2023-06-10T03:06:27;101247.09;;;19.48;84.50
59103;BME280;43999;51.660;5.616;2023-06-10T03:09:04;101239.50;;;19.43;84.24
59103;BME280;43999;51.660;5.616;2023-06-10T03:11:32;101250.28;;;19.42;84.25
59103;BME280;43999;51.660;5.616;2023-06-10T03:14:00;101247.03;;;19.38;84.97
59103;BME280;43999;51.660;5.616;2023-06-10T03:16:29;101247.31;;;19.35;84.91
59103;BME280;43999;51.660;5.616;2023-06-10T03:18:59;101248.53;;;19.31;84.86
59103;BME280;43999;51.660;5.616;2023-06-10T03:21:27;101237.44;;;19.26;85.33
59103;BME280;43999;51.660;5.616;2023-06-10T03:23:56;101249.03;;;19.25;85.39
59103;BME280;43999;51.660;5.616;2023-06-10T03:26:23;101250.13;;;19.22;85.47
59103;BME280;43999;51.660;5.616;2023-06-10T03:28:51;101248.59;;;19.20;85.93
59103;BME280;43999;51.660;5.616;2023-06-10T03:31:19;101249.81;;;19.15;85.68
59103;BME280;43999;51.660;5.616;2023-06-10T03:33:47;101254.41;;;19.13;86.07
59103;BME280;43999;51.660;5.616;2023-06-10T03:36:15;101253.81;;;19.10;85.84
59103;BME280;43999;51.660;5.616;2023-06-10T03:38:43;101266.25;;;19.09;86.48
59103;BME280;43999;51.660;5.616;2023-06-10T03:41:10;101259.63;;;19.04;86.06
59103;BME280;43999;51.660;5.616;2023-06-10T03:43:40;101261.47;;;19.03;85.92
59103;BME280;43999;51.660;5.616;2023-06-10T03:46:08;101261.84;;;18.98;85.74
59103;BME280;43999;51.660;5.616;2023-06-10T03:48:37;101268.97;;;18.98;86.09
59103;BME280;43999;51.660;5.616;2023-06-10T03:51:06;101259.56;;;18.94;86.18
59103;BME280;43999;51.660;5.616;2023-06-10T03:53:34;101265.47;;;18.97;86.31
59103;BME280;43999;51.660;5.616;2023-06-10T03:56:01;101268.38;;;18.94;85.53
59103;BME280;43999;51.660;5.616;2023-06-10T03:58:29;101271.16;;;18.93;85.99
59103;BME280;43999;51.660;5.616;2023-06-10T04:00:58;101269.47;;;18.92;85.74
59103;BME280;43999;51.660;5.616;2023-06-10T04:03:32;101272.13;;;18.92;85.49
59103;BME280;43999;51.660;5.616;2023-06-10T04:06:00;101266.81;;;18.92;85.41
59103;BME280;43999;51.660;5.616;2023-06-10T04:08:28;101268.75;;;18.90;85.70
59103;BME280;43999;51.660;5.616;2023-06-10T04:10:56;101272.25;;;18.90;85.48
59103;BME280;43999;51.660;5.616;2023-06-10T04:13:26;101269.72;;;18.89;85.69
59103;BME280;43999;51.660;5.616;2023-06-10T04:15:57;101268.88;;;18.88;85.96
59103;BME280;43999;51.660;5.616;2023-06-10T04:18:25;101271.78;;;18.85;85.53
59103;BME280;43999;51.660;5.616;2023-06-10T04:20:55;101278.66;;;18.88;86.17
59103;BME280;43999;51.660;5.616;2023-06-10T04:23:25;101275.16;;;18.87;85.95
59103;BME280;43999;51.660;5.616;2023-06-10T04:25:53;101277.81;;;18.87;85.51
59103;BME280;43999;51.660;5.616;2023-06-10T04:28:21;101283.00;;;18.89;86.03
59103;BME280;43999;51.660;5.616;2023-06-10T04:30:48;101276.13;;;18.86;86.39
59103;BME280;43999;51.660;5.616;2023-06-10T04:33:16;101283.00;;;18.89;86.03
59103;BME280;43999;51.660;5.616;2023-06-10T04:35:45;101294.47;;;18.89;86.32
59103;BME280;43999;51.660;5.616;2023-06-10T04:38:15;101291.22;;;18.86;86.39
59103;BME280;43999;51.660;5.616;2023-06-10T04:40:43;101288.06;;;18.92;86.17
59103;BME280;43999;51.660;5.616;2023-06-10T04:43:13;101287.22;;;18.91;86.20
59103;BME280;43999;51.660;5.616;2023-06-10T04:45:41;101292.00;;;18.97;86.59
59103;BME280;43999;51.660;5.616;2023-06-10T04:48:12;101295.41;;;18.99;85.91
59103;BME280;43999;51.660;5.616;2023-06-10T04:50:40;101296.94;;;19.02;86.45
59103;BME280;43999;51.660;5.616;2023-06-10T04:53:07;101289.72;;;19.04;86.62
59103;BME280;43999;51.660;5.616;2023-06-10T04:55:37;101290.28;;;19.08;86.57
59103;BME280;43999;51.660;5.616;2023-06-10T04:58:04;101293.53;;;19.11;86.26
59103;BME280;43999;51.660;5.616;2023-06-10T05:00:32;101288.94;;;19.13;86.35
59103;BME280;43999;51.660;5.616;2023-06-10T05:02:59;101299.31;;;19.16;85.49
59103;BME280;43999;51.660;5.616;2023-06-10T05:05:27;101294.59;;;19.20;85.99
59103;BME280;43999;51.660;5.616;2023-06-10T05:07:54;101297.94;;;19.22;85.39
59103;BME280;43999;51.660;5.616;2023-06-10T05:10:21;101292.50;;;19.24;85.65
59103;BME280;43999;51.660;5.616;2023-06-10T05:12:49;101296.72;;;19.26;85.10
59103;BME280;43999;51.660;5.616;2023-06-10T05:15:16;101294.53;;;19.31;85.36
59103;BME280;43999;51.660;5.616;2023-06-10T05:17:44;101300.44;;;19.35;85.51
59103;BME280;43999;51.660;5.616;2023-06-10T05:20:12;101294.88;;;19.38;84.76
59103;BME280;43999;51.660;5.616;2023-06-10T05:22:40;101300.75;;;19.42;84.64
59103;BME280;43999;51.660;5.616;2023-06-10T05:25:08;101305.56;;;19.48;85.28
59103;BME280;43999;51.660;5.616;2023-06-10T05:27:36;101300.81;;;19.51;84.18
59103;BME280;43999;51.660;5.616;2023-06-10T05:30:05;101303.81;;;19.58;84.64
59103;BME280;43999;51.660;5.616;2023-06-10T05:32:34;101302.91;;;19.69;83.21
59103;BME280;43999;51.660;5.616;2023-06-10T05:35:01;101296.19;;;19.75;83.18
59103;BME280;43999;51.660;5.616;2023-06-10T05:37:30;101302.00;;;19.80;82.94
59103;BME280;43999;51.660;5.616;2023-06-10T05:39:57;101303.03;;;19.88;82.94
59103;BME280;43999;51.660;5.616;2023-06-10T05:42:25;101296.78;;;19.99;82.75
59103;BME280;43999;51.660;5.616;2023-06-10T05:44:52;101303.69;;;20.12;81.83
59103;BME280;43999;51.660;5.616;2023-06-10T05:47:19;101303.56;;;20.13;81.61
59103;BME280;43999;51.660;5.616;2023-06-10T05:49:47;101307.53;;;20.19;80.47
59103;BME280;43999;51.660;5.616;2023-06-10T05:52:17;101310.03;;;20.20;80.26
59103;BME280;43999;51.660;5.616;2023-06-10T05:54:45;101309.03;;;20.21;80.48
59103;BME280;43999;51.660;5.616;2023-06-10T05:57:13;101303.59;;;20.23;80.98
59103;BME280;43999;51.660;5.616;2023-06-10T05:59:40;101307.28;;;20.32;80.08
59103;BME280;43999;51.660;5.616;2023-06-10T06:02:09;101309.81;;;20.33;80.16
59103;BME280;43999;51.660;5.616;2023-06-10T06:04:36;101307.28;;;20.41;79.31
59103;BME280;43999;51.660;5.616;2023-06-10T06:07:04;101299.31;;;20.41;78.71
59103;BME280;43999;51.660;5.616;2023-06-10T06:09:32;101314.03;;;20.46;78.64
59103;BME280;43999;51.660;5.616;2023-06-10T06:11:59;101299.75;;;20.47;78.82
59103;BME280;43999;51.660;5.616;2023-06-10T06:14:30;101304.41;;;20.54;78.35
59103;BME280;43999;51.660;5.616;2023-06-10T06:16:59;101304.97;;;20.58;78.40
59103;BME280;43999;51.660;5.616;2023-06-10T06:19:26;101313.84;;;20.68;77.63
59103;BME280;43999;51.660;5.616;2023-06-10T06:21:53;101308.13;;;20.73;77.09
59103;BME280;43999;51.660;5.616;2023-06-10T06:24:21;101307.97;;;20.74;76.97
59103;BME280;43999;51.660;5.616;2023-06-10T06:26:48;101311.06;;;20.80;77.02
59103;BME280;43999;51.660;5.616;2023-06-10T06:29:16;101309.81;;;20.84;77.18
59103;BME280;43999;51.660;5.616;2023-06-10T06:31:43;101304.78;;;20.90;77.07
59103;BME280;43999;51.660;5.616;2023-06-10T06:34:11;101310.97;;;21.01;76.95
59103;BME280;43999;51.660;5.616;2023-06-10T06:36:42;101310.94;;;21.10;75.42
59103;BME280;43999;51.660;5.616;2023-06-10T06:39:09;101317.25;;;21.19;75.47
59103;BME280;43999;51.660;5.616;2023-06-10T06:41:37;101318.38;;;21.26;74.71
59103;BME280;43999;51.660;5.616;2023-06-10T06:44:04;101322.03;;;21.35;74.22
59103;BME280;43999;51.660;5.616;2023-06-10T06:46:36;101318.78;;;21.41;74.80
59103;BME280;43999;51.660;5.616;2023-06-10T06:49:03;101323.16;;;21.52;74.50
59103;BME280;43999;51.660;5.616;2023-06-10T06:51:31;101322.03;;;21.64;72.50
59103;BME280;43999;51.660;5.616;2023-06-10T06:53:58;101321.31;;;21.72;71.44
59103;BME280;43999;51.660;5.616;2023-06-10T06:56:26;101320.72;;;21.78;71.25
59103;BME280;43999;51.660;5.616;2023-06-10T06:58:55;101328.97;;;21.85;70.15
59103;BME280;43999;51.660;5.616;2023-06-10T07:01:24;101323.06;;;21.91;70.10
59103;BME280;43999;51.660;5.616;2023-06-10T07:03:52;101319.00;;;21.97;68.59
59103;BME280;43999;51.660;5.616;2023-06-10T07:06:19;101326.13;;;22.06;68.12
59103;BME280;43999;51.660;5.616;2023-06-10T07:08:46;101324.81;;;22.10;67.20
59103;BME280;43999;51.660;5.616;2023-06-10T07:11:14;101324.22;;;22.16;67.05
59103;BME280;43999;51.660;5.616;2023-06-10T07:13:43;101325.50;;;22.22;67.04
59103;BME280;43999;51.660;5.616;2023-06-10T07:16:10;101337.69;;;22.34;67.50
59103;BME280;43999;51.660;5.616;2023-06-10T07:18:37;101330.59;;;22.43;67.09
59103;BME280;43999;51.660;5.616;2023-06-10T07:21:05;101339.41;;;22.53;64.92
59103;BME280;43999;51.660;5.616;2023-06-10T07:23:33;101333.63;;;22.58;65.12
59103;BME280;43999;51.660;5.616;2023-06-10T07:26:01;101326.69;;;22.65;64.17
59103;BME280;43999;51.660;5.616;2023-06-10T07:28:28;101333.25;;;22.71;64.81
59103;BME280;43999;51.660;5.616;2023-06-10T07:30:56;101325.66;;;22.76;64.27
59103;BME280;43999;51.660;5.616;2023-06-10T07:33:23;101338.78;;;22.87;63.85
59103;BME280;43999;51.660;5.616;2023-06-10T07:35:51;101335.13;;;22.88;64.06
59103;BME280;43999;51.660;5.616;2023-06-10T07:38:20;101337.19;;;22.95;64.45
59103;BME280;43999;51.660;5.616;2023-06-10T07:40:47;101339.94;;;23.03;64.52
59103;BME280;43999;51.660;5.616;2023-06-10T07:43:15;101343.72;;;23.10;64.36
59103;BME280;43999;51.660;5.616;2023-06-10T07:45:43;101339.13;;;23.20;64.64
59103;BME280;43999;51.660;5.616;2023-06-10T07:48:11;101342.94;;;23.36;63.38
59103;BME280;43999;51.660;5.616;2023-06-10T07:50:38;101345.38;;;23.47;64.20
59103;BME280;43999;51.660;5.616;2023-06-10T07:53:06;101339.63;;;23.60;63.83
59103;BME280;43999;51.660;5.616;2023-06-10T07:55:33;101346.25;;;23.74;62.13
59103;BME280;43999;51.660;5.616;2023-06-10T07:58:00;101341.47;;;23.86;61.34
59103;BME280;43999;51.660;5.616;2023-06-10T08:00:28;101343.59;;;24.00;61.09
59103;BME280;43999;51.660;5.616;2023-06-10T08:02:55;101340.50;;;24.21;59.68
59103;BME280;43999;51.660;5.616;2023-06-10T08:05:23;101340.66;;;24.54;58.83
59103;BME280;43999;51.660;5.616;2023-06-10T08:07:50;101345.81;;;25.06;56.42
59103;BME280;43999;51.660;5.616;2023-06-10T08:10:17;101340.81;;;25.53;56.65
59103;BME280;43999;51.660;5.616;2023-06-10T08:12:45;101335.22;;;26.04;54.62
59103;BME280;43999;51.660;5.616;2023-06-10T08:15:12;101336.72;;;26.46;53.61
59103;BME280;43999;51.660;5.616;2023-06-10T08:17:40;101334.63;;;26.96;51.03
59103;BME280;43999;51.660;5.616;2023-06-10T08:20:08;101336.78;;;27.24;49.96
59103;BME280;43999;51.660;5.616;2023-06-10T08:22:35;101338.84;;;27.60;48.40
59103;BME280;43999;51.660;5.616;2023-06-10T08:25:03;101336.81;;;27.91;46.22
59103;BME280;43999;51.660;5.616;2023-06-10T08:27:31;101346.69;;;28.14;47.79
59103;BME280;43999;51.660;5.616;2023-06-10T08:29:58;101336.72;;;28.44;45.35
59103;BME280;43999;51.660;5.616;2023-06-10T08:32:27;101337.44;;;28.68;43.45
59103;BME280;43999;51.660;5.616;2023-06-10T08:34:55;101345.28;;;28.85;42.35
59103;BME280;43999;51.660;5.616;2023-06-10T08:37:24;101335.66;;;28.97;42.58
59103;BME280;43999;51.660;5.616;2023-06-10T08:39:51;101334.94;;;29.10;42.96
59103;BME280;43999;51.660;5.616;2023-06-10T08:45:22;101338.69;;;29.59;43.53
59103;BME280;43999;51.660;5.616;2023-06-10T08:47:50;101341.22;;;29.89;41.98
59103;BME280;43999;51.660;5.616;2023-06-10T08:50:21;101342.13;;;30.02;40.95
59103;BME280;43999;51.660;5.616;2023-06-10T08:52:53;101342.84;;;30.25;39.47
59103;BME280;43999;51.660;5.616;2023-06-10T08:55:30;101346.00;;;30.35;39.64
59103;BME280;43999;51.660;5.616;2023-06-10T08:58:00;101345.47;;;30.46;40.68
59103;BME280;43999;51.660;5.616;2023-06-10T09:00:30;101343.66;;;30.73;38.97
59103;BME280;43999;51.660;5.616;2023-06-10T09:02:59;101353.06;;;30.78;39.05
59103;BME280;43999;51.660;5.616;2023-06-10T09:05:34;101345.34;;;30.81;38.75
59103;BME280;43999;51.660;5.616;2023-06-10T09:08:07;101339.97;;;30.88;38.96
59103;BME280;43999;51.660;5.616;2023-06-10T09:10:36;101347.88;;;30.96;37.39
59103;BME280;43999;51.660;5.616;2023-06-10T09:13:03;101341.41;;;30.90;36.79
59103;BME280;43999;51.660;5.616;2023-06-10T09:15:31;101343.28;;;30.97;37.25
59103;BME280;43999;51.660;5.616;2023-06-10T09:17:59;101345.22;;;31.03;37.23
59103;BME280;43999;51.660;5.616;2023-06-10T09:20:27;101340.44;;;31.12;37.71
59103;BME280;43999;51.660;5.616;2023-06-10T09:22:55;101331.69;;;31.23;37.06
59103;BME280;43999;51.660;5.616;2023-06-10T09:25:36;101332.31;;;31.38;36.18
59103;BME280;43999;51.660;5.616;2023-06-10T09:28:08;101331.91;;;31.48;35.04
59103;BME280;43999;51.660;5.616;2023-06-10T09:30:40;101331.69;;;31.50;36.28
59103;BME280;43999;51.660;5.616;2023-06-10T09:33:16;101324.00;;;31.60;35.47
59103;BME280;43999;51.660;5.616;2023-06-10T09:35:48;101325.84;;;31.73;34.91
59103;BME280;43999;51.660;5.616;2023-06-10T09:38:21;101328.50;;;31.93;34.30
59103;BME280;43999;51.660;5.616;2023-06-10T09:40:54;101327.00;;;32.04;34.76
59103;BME280;43999;51.660;5.616;2023-06-10T09:43:22;101330.91;;;32.28;33.43
59103;BME280;43999;51.660;5.616;2023-06-10T09:45:50;101331.53;;;32.30;33.76
59103;BME280;43999;51.660;5.616;2023-06-10T09:48:23;101326.47;;;32.40;33.52
59103;BME280;43999;51.660;5.616;2023-06-10T09:50:53;101332.66;;;32.54;32.74
59103;BME280;43999;51.660;5.616;2023-06-10T09:53:20;101334.50;;;32.60;33.19
59103;BME280;43999;51.660;5.616;2023-06-10T09:55:51;101326.56;;;32.65;32.75
59103;BME280;43999;51.660;5.616;2023-06-10T09:58:35;101332.41;;;32.69;33.34
59103;BME280;43999;51.660;5.616;2023-06-10T10:01:12;101326.22;;;32.87;32.07
59103;BME280;43999;51.660;5.616;2023-06-10T10:03:50;101324.84;;;33.03;32.49
59103;BME280;43999;51.660;5.616;2023-06-10T10:06:20;101316.78;;;33.21;33.38
59103;BME280;43999;51.660;5.616;2023-06-10T10:08:50;101319.09;;;33.43;32.59
59103;BME280;43999;51.660;5.616;2023-06-10T10:11:20;101319.59;;;33.58;32.44
59103;BME280;43999;51.660;5.616;2023-06-10T10:13:52;101319.34;;;33.60;33.17
59103;BME280;43999;51.660;5.616;2023-06-10T10:16:35;101325.34;;;33.69;33.40
59103;BME280;43999;51.660;5.616;2023-06-10T10:19:39;101315.72;;;33.73;32.10
59103;BME280;43999;51.660;5.616;2023-06-10T10:22:37;101311.97;;;33.67;31.82
59103;BME280;43999;51.660;5.616;2023-06-10T10:25:29;101310.38;;;33.59;32.29
59103;BME280;43999;51.660;5.616;2023-06-10T10:28:11;101308.22;;;33.68;32.17
59103;BME280;43999;51.660;5.616;2023-06-10T10:30:50;101312.78;;;33.74;31.30
59103;BME280;43999;51.660;5.616;2023-06-10T10:33:59;101313.22;;;33.71;31.30
59103;BME280;43999;51.660;5.616;2023-06-10T10:36:29;101311.03;;;33.80;32.04
59103;BME280;43999;51.660;5.616;2023-06-10T10:38:58;101312.59;;;33.88;31.40
59103;BME280;43999;51.660;5.616;2023-06-10T10:41:31;101309.97;;;34.00;31.10
59103;BME280;43999;51.660;5.616;2023-06-10T10:44:00;101312.38;;;34.08;30.16
59103;BME280;43999;51.660;5.616;2023-06-10T10:46:30;101305.28;;;34.07;30.05
59103;BME280;43999;51.660;5.616;2023-06-10T10:48:58;101308.59;;;34.09;30.63
59103;BME280;43999;51.660;5.616;2023-06-10T10:51:34;101309.66;;;34.08;29.42
59103;BME280;43999;51.660;5.616;2023-06-10T10:54:15;101307.69;;;34.15;29.99
59103;BME280;43999;51.660;5.616;2023-06-10T11:02:31;101295.03;;;34.39;28.60
59103;BME280;43999;51.660;5.616;2023-06-10T11:05:01;101306.78;;;34.52;29.13
59103;BME280;43999;51.660;5.616;2023-06-10T11:07:32;101296.53;;;34.65;27.85
59103;BME280;43999;51.660;5.616;2023-06-10T11:10:11;101283.69;;;34.73;28.24
59103;BME280;43999;51.660;5.616;2023-06-10T11:13:06;101296.72;;;34.82;28.03
59103;BME280;43999;51.660;5.616;2023-06-10T11:15:58;101285.53;;;34.91;27.95
59103;BME280;43999;51.660;5.616;2023-06-10T11:18:29;101287.16;;;34.92;27.83
59103;BME280;43999;51.660;5.616;2023-06-10T11:21:03;101287.03;;;34.87;27.87
59103;BME280;43999;51.660;5.616;2023-06-10T11:23:40;101277.44;;;34.84;28.38
59103;BME280;43999;51.660;5.616;2023-06-10T11:31:42;101273.56;;;34.50;28.17
59103;BME280;43999;51.660;5.616;2023-06-10T11:34:22;101278.81;;;34.33;28.33
59103;BME280;43999;51.660;5.616;2023-06-10T11:36:52;101277.78;;;34.15;28.58
59103;BME280;43999;51.660;5.616;2023-06-10T11:39:21;101276.22;;;34.07;28.30
59103;BME280;43999;51.660;5.616;2023-06-10T11:41:51;101268.72;;;34.03;27.52
59103;BME280;43999;51.660;5.616;2023-06-10T11:44:19;101270.91;;;34.12;27.27
59103;BME280;43999;51.660;5.616;2023-06-10T11:46:49;101274.38;;;34.20;27.96
59103;BME280;43999;51.660;5.616;2023-06-10T11:49:17;101273.16;;;34.16;28.11
59103;BME280;43999;51.660;5.616;2023-06-10T11:51:44;101260.22;;;33.99;27.71
59103;BME280;43999;51.660;5.616;2023-06-10T11:54:17;101267.38;;;33.93;26.98
59103;BME280;43999;51.660;5.616;2023-06-10T11:56:46;101268.38;;;33.81;26.78
59103;BME280;43999;51.660;5.616;2023-06-10T11:59:15;101268.22;;;33.75;27.18
59103;BME280;43999;51.660;5.616;2023-06-10T12:01:44;101259.97;;;33.64;27.42
59103;BME280;43999;51.660;5.616;2023-06-10T12:04:15;101265.69;;;33.55;27.67
59103;BME280;43999;51.660;5.616;2023-06-10T12:06:51;101262.50;;;33.40;27.47
59103;BME280;43999;51.660;5.616;2023-06-10T12:09:28;101248.22;;;33.26;28.48
59103;BME280;43999;51.660;5.616;2023-06-10T12:12:04;101251.63;;;33.21;28.20
59103;BME280;43999;51.660;5.616;2023-06-10T12:20:06;101249.53;;;33.23;28.06
59103;BME280;43999;51.660;5.616;2023-06-10T12:22:42;101241.53;;;33.29;27.44
59103;BME280;43999;51.660;5.616;2023-06-10T12:25:11;101240.88;;;33.33;27.43
59103;BME280;43999;51.660;5.616;2023-06-10T12:27:50;101241.63;;;33.40;27.63
59103;BME280;43999;51.660;5.616;2023-06-10T12:30:25;101239.66;;;33.48;27.01
59103;BME280;43999;51.660;5.616;2023-06-10T12:32:54;101239.19;;;33.51;27.72
59103;BME280;43999;51.660;5.616;2023-06-10T12:35:27;101239.59;;;33.54;27.95
59103;BME280;43999;51.660;5.616;2023-06-10T12:38:01;101236.44;;;33.57;26.83
59103;BME280;43999;51.660;5.616;2023-06-10T12:40:34;101229.56;;;33.55;26.68
59103;BME280;43999;51.660;5.616;2023-06-10T12:43:04;101233.03;;;33.44;26.47
59103;BME280;43999;51.660;5.616;2023-06-10T12:45:39;101235.13;;;33.41;26.99
59103;BME280;43999;51.660;5.616;2023-06-10T12:50:55;101242.16;;;33.68;26.94
59103;BME280;43999;51.660;5.616;2023-06-10T12:53:24;101233.56;;;33.89;26.28
59103;BME280;43999;51.660;5.616;2023-06-10T12:55:56;101235.56;;;34.12;26.05
59103;BME280;43999;51.660;5.616;2023-06-10T12:58:25;101228.34;;;34.37;26.56
59103;BME280;43999;51.660;5.616;2023-06-10T13:00:53;101232.03;;;34.54;26.00
59103;BME280;43999;51.660;5.616;2023-06-10T13:03:21;101225.69;;;34.72;24.81
59103;BME280;43999;51.660;5.616;2023-06-10T13:05:48;101230.47;;;34.77;25.47
59103;BME280;43999;51.660;5.616;2023-06-10T13:08:16;101230.59;;;34.40;25.00
59103;BME280;43999;51.660;5.616;2023-06-10T13:10:43;101239.03;;;34.20;25.10
59103;BME280;43999;51.660;5.616;2023-06-10T13:13:16;101231.31;;;34.47;25.70
59103;BME280;43999;51.660;5.616;2023-06-10T13:15:43;101227.16;;;34.87;24.82
59103;BME280;43999;51.660;5.616;2023-06-10T13:18:10;101229.41;;;35.01;24.78
59103;BME280;43999;51.660;5.616;2023-06-10T13:20:39;101223.72;;;35.15;24.38
59103;BME280;43999;51.660;5.616;2023-06-10T13:23:08;101219.22;;;35.21;23.36
59103;BME280;43999;51.660;5.616;2023-06-10T13:25:36;101219.94;;;35.40;22.97
59103;BME280;43999;51.660;5.616;2023-06-10T13:28:03;101218.97;;;35.58;22.97